createdAt,value
2024-01-26T00:01:28.657Z,66.20
2024-01-26T00:04:34.734Z,67.34
2024-01-26T00:07:40.709Z,67.87
2024-01-26T00:10:46.482Z,68.31
2024-01-26T00:13:52.149Z,68.84
2024-01-26T00:16:57.823Z,69.39
2024-01-26T00:20:03.492Z,69.87
2024-01-26T00:23:09.176Z,70.11
2024-01-26T00:26:16.117Z,70.42
2024-01-26T00:29:22.320Z,70.82
2024-01-26T00:32:27.986Z,70.95
2024-01-26T00:35:33.842Z,70.75
2024-01-26T00:38:39.478Z,70.56
2024-01-26T00:41:45.100Z,70.70
2024-01-26T00:44:50.707Z,70.87
2024-01-26T00:47:56.409Z,70.88
2024-01-26T00:51:02.842Z,71.61
2024-01-26T00:54:08.599Z,71.79
2024-01-26T00:57:15.323Z,72.02
2024-01-26T01:00:21.585Z,72.20
2024-01-26T01:03:27.491Z,72.09
2024-01-26T01:06:33.307Z,72.41
2024-01-26T01:09:41.558Z,72.47
2024-01-26T01:12:47.877Z,72.49
2024-01-26T01:15:53.625Z,72.58
2024-01-26T01:18:59.392Z,72.76
2024-01-26T01:22:05.365Z,72.36
2024-01-26T01:25:13.336Z,71.64
2024-01-26T01:28:19.052Z,70.92
2024-01-26T01:31:24.716Z,71.01
2024-01-26T01:34:30.701Z,71.33
2024-01-26T01:37:36.457Z,71.50
2024-01-26T01:40:42.221Z,71.24
2024-01-26T01:43:57.181Z,70.71
2024-01-26T01:47:02.821Z,71.04
2024-01-26T01:50:10.001Z,71.32
2024-01-26T01:53:17.174Z,71.54
2024-01-26T01:56:25.630Z,71.52
2024-01-26T01:59:32.401Z,71.70
2024-01-26T02:02:38.499Z,71.63
2024-01-26T02:05:45.520Z,71.67
2024-01-26T02:08:51.232Z,71.28
2024-01-26T02:11:57.499Z,71.07
2024-01-26T02:15:01.781Z,70.91
2024-01-26T02:18:08.349Z,71.25
2024-01-26T02:21:14.031Z,70.97
2024-01-26T02:24:19.991Z,70.70
2024-01-26T02:27:25.986Z,70.95
2024-01-26T02:30:34.984Z,70.71
2024-01-26T02:33:40.798Z,70.36
2024-01-26T02:36:46.588Z,70.12
2024-01-26T02:39:52.412Z,69.88
2024-01-26T02:42:58.022Z,69.51
2024-01-26T02:46:09.995Z,69.15
2024-01-26T02:49:16.077Z,69.02
2024-01-26T02:52:22.277Z,69.11
2024-01-26T02:55:27.914Z,68.58
2024-01-26T02:58:33.586Z,68.25
2024-01-26T03:01:39.252Z,68.61
2024-01-26T03:04:44.850Z,68.36
2024-01-26T03:07:50.520Z,68.71
2024-01-26T03:10:56.132Z,68.72
2024-01-26T03:14:01.781Z,68.54
2024-01-26T03:17:07.781Z,68.44
2024-01-26T03:20:15.166Z,68.62
2024-01-26T03:23:20.900Z,68.51
2024-01-26T03:26:26.566Z,68.60
2024-01-26T03:29:32.232Z,68.59
2024-01-26T03:32:38.086Z,68.77
2024-01-26T03:35:43.809Z,68.94
2024-01-26T03:38:49.535Z,69.05
2024-01-26T03:41:55.614Z,69.06
2024-01-26T03:45:02.054Z,69.18
2024-01-26T03:48:07.211Z,69.42
2024-01-26T03:51:13.456Z,69.92
2024-01-26T03:54:17.715Z,69.40
2024-01-26T03:57:24.127Z,69.37
2024-01-26T04:00:29.808Z,69.51
2024-01-26T04:03:35.622Z,69.52
2024-01-26T04:06:43.813Z,69.35
2024-01-26T04:09:49.485Z,68.85
2024-01-26T04:12:55.089Z,68.84
2024-01-26T04:16:00.770Z,67.85
2024-01-26T04:19:06.563Z,68.09
2024-01-26T04:22:12.480Z,68.50
2024-01-26T04:25:18.296Z,68.62
2024-01-26T04:28:23.964Z,68.40
2024-01-26T04:31:29.847Z,68.59
2024-01-26T04:34:39.101Z,68.54
2024-01-26T04:37:45.173Z,68.61
2024-01-26T04:40:50.849Z,68.31
2024-01-26T04:43:56.735Z,68.28
2024-01-26T04:47:02.390Z,68.15
2024-01-26T04:50:09.090Z,67.35
2024-01-26T04:53:16.629Z,67.22
2024-01-26T04:56:22.997Z,67.47
2024-01-26T04:59:27.436Z,67.82
2024-01-26T05:02:33.134Z,68.27
2024-01-26T05:05:38.910Z,68.71
2024-01-26T05:08:45.257Z,68.63
2024-01-26T05:11:51.254Z,68.48
2024-01-26T05:14:56.948Z,68.45
2024-01-26T05:18:02.795Z,68.37
2024-01-26T05:21:09.456Z,68.03
2024-01-26T05:24:15.241Z,67.89
2024-01-26T05:27:20.913Z,67.52
2024-01-26T05:30:27.652Z,67.41
2024-01-26T05:33:33.619Z,67.34
2024-01-26T05:36:44.300Z,67.59
2024-01-26T05:39:50.070Z,67.30
2024-01-26T05:42:55.691Z,67.64
2024-01-26T05:46:01.338Z,68.74
2024-01-26T05:49:09.354Z,68.93
2024-01-26T05:52:15.836Z,69.09
2024-01-26T05:55:21.621Z,69.30
2024-01-26T05:58:27.466Z,69.06
2024-01-26T06:01:33.169Z,68.89
2024-01-26T06:04:38.803Z,68.67
2024-01-26T06:07:44.476Z,68.69
2024-01-26T06:10:50.197Z,68.53
2024-01-26T06:13:55.810Z,68.22
2024-01-26T06:17:01.481Z,67.99
2024-01-26T06:20:09.178Z,67.77
2024-01-26T06:23:14.896Z,67.61
2024-01-26T06:26:21.400Z,67.52
2024-01-26T06:29:27.156Z,67.47
2024-01-26T06:32:32.947Z,67.25
2024-01-26T06:35:39.454Z,67.17
2024-01-26T06:38:45.297Z,66.95
2024-01-26T06:41:51.929Z,66.80
2024-01-26T06:44:57.893Z,66.72
2024-01-26T06:48:03.828Z,66.24
2024-01-26T06:51:10.143Z,66.45
2024-01-26T06:54:15.962Z,66.67
2024-01-26T06:57:22.276Z,66.65
2024-01-26T07:00:28.824Z,66.61
2024-01-26T07:03:34.620Z,66.51
2024-01-26T07:06:40.503Z,66.67
2024-01-26T07:09:46.366Z,66.47
2024-01-26T07:12:52.088Z,66.43
2024-01-26T07:15:57.735Z,66.60
2024-01-26T07:19:03.471Z,66.57
2024-01-26T07:22:09.328Z,66.50
2024-01-26T07:25:20.300Z,66.58
2024-01-26T07:28:26.084Z,66.46
2024-01-26T07:31:31.753Z,66.37
2024-01-26T07:34:37.622Z,66.23
2024-01-26T07:37:43.409Z,66.42
2024-01-26T07:40:49.012Z,66.53
2024-01-26T07:43:54.660Z,66.39
2024-01-26T07:47:00.298Z,66.38
2024-01-26T07:50:07.164Z,66.50
2024-01-26T07:53:13.799Z,66.27
2024-01-26T07:56:19.555Z,66.09
2024-01-26T07:59:25.320Z,66.33
2024-01-26T08:02:31.981Z,65.88
2024-01-26T08:05:38.064Z,66.03
2024-01-26T08:08:44.092Z,65.76
2024-01-26T08:11:50.840Z,66.07
2024-01-26T08:15:01.643Z,66.01
2024-01-26T08:18:09.198Z,65.82
2024-01-26T08:21:15.059Z,65.58
2024-01-26T08:24:21.280Z,65.65
2024-01-26T08:27:27.312Z,65.98
2024-01-26T08:30:33.254Z,66.01
2024-01-26T08:33:39.239Z,65.93
2024-01-26T08:36:45.116Z,65.88
2024-01-26T08:39:51.080Z,65.85
2024-01-26T08:42:56.735Z,65.73
2024-01-26T08:46:02.388Z,65.78
2024-01-26T08:49:08.821Z,65.49
2024-01-26T08:52:14.606Z,65.04
2024-01-26T08:55:20.538Z,64.61
2024-01-26T08:58:26.419Z,64.41
2024-01-26T09:01:32.072Z,64.63
2024-01-26T09:04:38.285Z,64.32
2024-01-26T09:07:42.660Z,64.89
2024-01-26T09:10:48.455Z,65.33
2024-01-26T09:13:54.144Z,65.56
2024-01-26T09:17:02.057Z,65.39
2024-01-26T09:20:10.682Z,65.82
2024-01-26T09:23:16.663Z,66.74
2024-01-26T09:26:22.852Z,67.10
2024-01-26T09:29:27.781Z,66.62
2024-01-26T09:32:35.488Z,66.11
2024-01-26T09:35:41.442Z,66.00
2024-01-26T09:38:47.171Z,66.48
2024-01-26T09:41:52.993Z,66.98
2024-01-26T09:44:59.108Z,66.65
2024-01-26T09:48:08.369Z,67.02
2024-01-26T09:51:14.573Z,66.83
2024-01-26T09:54:22.822Z,67.16
2024-01-26T09:57:29.904Z,67.29
2024-01-26T10:00:35.767Z,67.36
2024-01-26T10:03:41.577Z,67.54
2024-01-26T10:06:49.700Z,66.79
2024-01-26T10:09:55.742Z,66.44
2024-01-26T10:13:01.866Z,65.82
2024-01-26T10:16:13.771Z,64.94
2024-01-26T10:19:27.196Z,64.19
2024-01-26T10:22:33.407Z,63.83
2024-01-26T10:25:41.423Z,64.15
2024-01-26T10:28:49.758Z,63.17
2024-01-26T10:31:55.716Z,63.22
2024-01-26T10:35:04.066Z,62.66
2024-01-26T10:38:12.441Z,62.49
2024-01-26T10:41:22.888Z,62.73
2024-01-26T10:44:29.159Z,62.07
2024-01-26T10:47:36.751Z,62.30
2024-01-26T10:50:43.499Z,62.23
2024-01-26T10:53:50.197Z,62.72
2024-01-26T10:56:56.423Z,63.60
2024-01-26T11:00:00.977Z,63.46
2024-01-26T11:03:07.801Z,63.21
2024-01-26T11:06:15.216Z,63.38
2024-01-26T11:09:22.331Z,63.73
2024-01-26T11:12:31.283Z,63.76
2024-01-26T11:15:38.662Z,63.86
2024-01-26T11:18:44.381Z,63.80
2024-01-26T11:21:50.821Z,63.79
2024-01-26T11:24:56.668Z,63.59
2024-01-26T11:28:01.544Z,63.89
2024-01-26T11:31:08.126Z,64.00
2024-01-26T11:34:23.288Z,63.15
2024-01-26T11:37:31.007Z,62.91
2024-01-26T11:40:37.477Z,62.85
2024-01-26T11:43:47.646Z,62.42
2024-01-26T11:46:54.055Z,61.51
2024-01-26T11:50:00.071Z,61.49
2024-01-26T11:53:06.740Z,61.91
2024-01-26T11:56:13.077Z,61.55
2024-01-26T11:59:19.008Z,61.31
2024-01-26T12:02:24.778Z,61.33
2024-01-26T12:05:31.405Z,61.71
2024-01-26T12:08:37.490Z,61.76
2024-01-26T12:11:43.890Z,61.77
2024-01-26T12:14:50.198Z,61.37
2024-01-26T12:17:54.376Z,61.28
2024-01-26T12:21:01.702Z,61.22
2024-01-26T12:24:15.833Z,61.09
2024-01-26T12:27:22.360Z,61.37
2024-01-26T12:30:27.468Z,61.95
2024-01-26T12:33:36.452Z,61.98
2024-01-26T12:36:42.548Z,61.65
2024-01-26T12:40:38.132Z,61.27
2024-01-26T12:43:45.114Z,61.38
2024-01-26T12:46:50.961Z,61.15
2024-01-26T12:49:56.832Z,60.43
2024-01-26T12:53:02.862Z,60.19
2024-01-26T12:56:10.057Z,59.99
2024-01-26T12:59:16.009Z,58.42
2024-01-26T13:02:21.882Z,58.33
2024-01-26T13:05:27.711Z,59.34
2024-01-26T13:08:33.408Z,60.49
2024-01-26T13:11:40.491Z,63.10
2024-01-26T13:14:48.099Z,64.35
2024-01-26T13:17:54.034Z,63.34
2024-01-26T13:21:00.261Z,62.84
2024-01-26T13:24:06.918Z,61.90
2024-01-26T13:27:14.357Z,61.81
2024-01-26T13:30:25.245Z,61.67
2024-01-26T13:33:32.339Z,61.07
2024-01-26T13:36:38.096Z,60.28
2024-01-26T13:39:43.747Z,60.21
2024-01-26T13:42:50.214Z,60.39
2024-01-26T13:45:55.963Z,59.93
2024-01-26T13:49:01.878Z,59.64
2024-01-26T13:52:09.584Z,58.23
2024-01-26T13:55:16.501Z,57.88
2024-01-26T13:58:22.405Z,58.88
2024-01-26T14:01:28.271Z,59.20
2024-01-26T14:04:34.106Z,60.14
2024-01-26T14:07:40.061Z,62.44
2024-01-26T14:10:45.902Z,63.50
2024-01-26T14:13:51.782Z,62.00
2024-01-26T14:16:58.791Z,60.94
2024-01-26T14:20:04.960Z,60.16
2024-01-26T14:23:10.668Z,59.97
2024-01-26T14:26:16.333Z,59.77
2024-01-26T14:29:22.294Z,59.55
2024-01-26T14:32:28.289Z,58.36
2024-01-26T14:35:34.133Z,58.02
2024-01-26T14:38:39.886Z,59.12
2024-01-26T14:41:45.567Z,60.28
2024-01-26T14:44:51.439Z,62.48
2024-01-26T14:47:57.128Z,62.97
2024-01-26T14:51:02.902Z,61.95
2024-01-26T14:54:08.657Z,61.00
2024-01-26T14:57:14.437Z,60.50
2024-01-26T15:00:22.748Z,60.02
2024-01-26T15:03:29.941Z,59.75
2024-01-26T15:06:36.267Z,59.95
2024-01-26T15:09:41.998Z,59.33
2024-01-26T15:12:47.730Z,58.42
2024-01-26T15:15:53.933Z,59.71
2024-01-26T15:22:03.632Z,61.68
2024-01-26T15:25:10.789Z,65.03
2024-01-26T15:28:20.470Z,65.96
2024-01-26T15:31:26.272Z,65.00
2024-01-26T15:34:32.473Z,64.10
2024-01-26T15:37:37.423Z,63.23
2024-01-26T15:40:43.981Z,63.00
2024-01-26T15:43:49.635Z,62.66
2024-01-26T15:46:55.366Z,62.69
2024-01-26T15:50:01.196Z,62.12
2024-01-26T15:53:07.568Z,61.85
2024-01-26T15:56:13.566Z,61.65
2024-01-26T15:59:19.189Z,61.65
2024-01-26T16:02:24.827Z,61.45
2024-01-26T16:05:30.475Z,61.77
2024-01-26T16:08:39.371Z,61.71
2024-01-26T16:11:45.093Z,61.35
2024-01-26T16:14:50.847Z,60.91
2024-01-26T16:17:56.815Z,61.00
2024-01-26T16:21:02.784Z,60.77
2024-01-26T16:24:09.825Z,61.08
2024-01-26T16:27:15.620Z,61.29
2024-01-26T16:30:21.936Z,61.78
2024-01-26T16:33:27.891Z,62.16
2024-01-26T16:36:34.717Z,62.02
2024-01-26T16:39:40.565Z,61.82
2024-01-26T16:42:46.359Z,61.81
2024-01-26T16:45:52.060Z,61.70
2024-01-26T16:48:59.830Z,61.94
2024-01-26T16:52:06.021Z,62.91
2024-01-26T16:55:12.594Z,63.09
2024-01-26T16:58:18.294Z,63.60
2024-01-26T17:01:24.392Z,63.84
2024-01-26T17:04:30.045Z,64.28
2024-01-26T17:07:36.452Z,64.64
2024-01-26T17:10:42.206Z,64.82
2024-01-26T17:13:47.842Z,65.13
2024-01-26T17:16:54.592Z,65.02
2024-01-26T17:20:00.322Z,65.04
2024-01-26T17:23:06.399Z,64.77
2024-01-26T17:26:12.045Z,64.33
2024-01-26T17:29:17.673Z,64.08
2024-01-26T17:32:23.358Z,63.89
2024-01-26T17:35:32.026Z,63.63
2024-01-26T17:38:38.681Z,64.15
2024-01-26T17:41:43.375Z,64.44
2024-01-26T17:44:50.503Z,64.85
2024-01-26T17:47:56.317Z,64.95
2024-01-26T17:51:02.241Z,64.83
2024-01-26T17:54:08.551Z,65.01
2024-01-26T17:57:12.730Z,65.49
2024-01-26T18:00:20.014Z,65.61
2024-01-26T18:03:25.813Z,65.74
2024-01-26T18:06:31.802Z,66.03
2024-01-26T18:09:37.591Z,66.09
2024-01-26T18:12:43.350Z,66.18
2024-01-26T18:15:49.169Z,66.12
2024-01-26T18:18:55.200Z,66.23
2024-01-26T18:22:01.114Z,66.68
2024-01-26T18:25:08.611Z,66.82
2024-01-26T18:28:14.396Z,66.46
2024-01-26T18:31:20.950Z,66.38
2024-01-26T18:34:27.031Z,66.29
2024-01-26T18:37:32.847Z,66.13
2024-01-26T18:40:38.494Z,66.04
2024-01-26T18:43:44.126Z,66.12
2024-01-26T18:46:49.919Z,65.99
2024-01-26T18:49:55.708Z,66.07
2024-01-26T18:53:01.525Z,66.04
2024-01-26T18:56:08.897Z,65.72
2024-01-26T18:59:17.685Z,65.86
2024-01-26T19:02:23.626Z,65.70
2024-01-26T19:05:29.570Z,65.40
2024-01-26T19:08:35.588Z,65.46
2024-01-26T19:11:44.669Z,65.61
2024-01-26T19:14:50.382Z,65.67
2024-01-26T19:17:56.223Z,65.77
2024-01-26T19:21:02.215Z,65.68
2024-01-26T19:24:09.127Z,65.89
2024-01-26T19:27:14.927Z,66.26
2024-01-26T19:30:21.051Z,66.70
2024-01-26T19:33:26.999Z,66.83
2024-01-26T19:36:32.855Z,67.24
2024-01-26T19:39:38.536Z,67.31
2024-01-26T19:42:44.176Z,67.43
2024-01-26T19:45:49.785Z,67.39
2024-01-26T19:48:56.038Z,67.49
2024-01-26T19:52:01.809Z,67.46
2024-01-26T19:55:09.646Z,67.40
2024-01-26T19:58:15.410Z,67.24
2024-01-26T20:01:21.246Z,67.12
2024-01-26T20:04:27.208Z,67.24
2024-01-26T20:07:33.270Z,67.38
2024-01-26T20:10:40.515Z,67.45
2024-01-26T20:13:46.586Z,67.44
2024-01-26T20:16:52.220Z,67.67
2024-01-26T20:19:59.795Z,67.92
2024-01-26T20:23:05.881Z,67.99
2024-01-26T20:26:13.204Z,67.87
2024-01-26T20:29:18.892Z,67.87
2024-01-26T20:32:27.354Z,67.80
2024-01-26T20:35:33.166Z,67.75
2024-01-26T20:38:39.102Z,67.98
2024-01-26T20:41:46.753Z,67.94
2024-01-26T20:44:52.576Z,67.83
2024-01-26T20:47:59.118Z,67.57
2024-01-26T20:51:05.034Z,67.50
2024-01-26T20:54:11.239Z,67.41
2024-01-26T20:57:18.243Z,67.49
2024-01-26T21:00:26.326Z,67.44
2024-01-26T21:03:32.466Z,67.54
2024-01-26T21:06:43.019Z,67.56
2024-01-26T21:09:48.800Z,67.72
2024-01-26T21:12:55.406Z,68.58
2024-01-26T21:16:01.088Z,68.99
2024-01-26T21:19:06.912Z,69.92
2024-01-26T21:22:12.698Z,71.13
2024-01-26T21:25:18.801Z,71.66
2024-01-26T21:28:25.461Z,72.60
2024-01-26T21:31:35.477Z,73.16
2024-01-26T21:34:41.357Z,72.81
2024-01-26T21:37:48.605Z,72.93
2024-01-26T21:40:54.558Z,73.71
2024-01-26T21:44:02.187Z,74.47
2024-01-26T21:47:08.747Z,74.93
2024-01-26T21:50:15.665Z,75.57
2024-01-26T21:53:21.582Z,75.27
2024-01-26T21:56:27.720Z,75.58
2024-01-26T21:59:33.670Z,76.03
2024-01-26T22:02:39.427Z,75.55
2024-01-26T22:05:45.474Z,75.01
2024-01-26T22:08:51.372Z,75.01
2024-01-26T22:11:57.253Z,75.16
2024-01-26T22:15:04.589Z,74.89
2024-01-26T22:18:10.793Z,74.65
2024-01-26T22:21:14.970Z,73.77
2024-01-26T22:24:20.640Z,74.21
2024-01-26T22:27:26.586Z,73.71
2024-01-26T22:30:32.841Z,73.19
2024-01-26T22:33:37.137Z,73.42
2024-01-26T22:36:42.966Z,73.31
2024-01-26T22:39:49.296Z,73.13
2024-01-26T22:42:54.943Z,73.07
2024-01-26T22:46:01.390Z,72.97
2024-01-26T22:49:07.371Z,72.85
2024-01-26T22:52:12.095Z,72.78
2024-01-26T22:55:19.555Z,72.70
2024-01-26T22:58:25.812Z,72.19
2024-01-26T23:01:31.987Z,72.01
2024-01-26T23:04:36.047Z,71.70
2024-01-26T23:07:41.635Z,71.90
2024-01-26T23:10:47.275Z,71.59
2024-01-26T23:13:53.385Z,71.58
2024-01-26T23:16:58.993Z,71.44
2024-01-26T23:20:06.284Z,71.40
2024-01-26T23:23:11.939Z,71.45
2024-01-26T23:26:17.680Z,71.45
2024-01-26T23:29:24.639Z,71.46
2024-01-26T23:32:30.829Z,71.49
2024-01-26T23:35:37.015Z,71.08
2024-01-26T23:38:43.069Z,70.94
2024-01-26T23:41:50.234Z,70.65
2024-01-26T23:44:57.313Z,70.83
2024-01-26T23:48:04.264Z,70.83
2024-01-26T23:51:10.209Z,70.99
2024-01-26T23:54:16.830Z,70.70
2024-01-26T23:57:22.566Z,70.36
